Trent, South Dakota
Current Conditions -  °F | °C
As of 12:14 AM on Thursday 29 Jan 2015 (Local Time) from KPQN Reporting Station
Overcast Overcast  
Wind Chill: 22°   Ceiling: 1600
Heat Index: 34°   Visibility: 10mi
Dew Point: 30°   Wind: 22mph
Humidity: 87%   Direction: 340°NNW
Pressure: 29.97"   Gusts: 32mph
Location:  43.91°N, 96.65°W
Report Text: KPQN 290614Z AUTO 34019G28KT 10SM BKN016 OVC022 01/M01 A2997 RMK AO2
Loading
Personal Weather Stations






























Interactive Weather Map New forecast layout! Learn more

10-Day Weather Forecast

Advertisements
Track Severe Weather on mobile